Strona główna
METAR-TAF:

METAR-TAF

Lotnisko :

Port lotniczy Luanda

Luanda, Angola

Szerokość geograficzna: 08-51S, Długość geograficzna: 013-14E, wysokość: 74 m

Aktualna obserwacja pogody

Raport powstał 36 minut temu, godzina 18:00 UTC
Wiatr 9 kt od południowo-południowy zachód
Temperatura 23°C
Wilgotność 83%
Ciśnienie 1012 hPa
Widzialność: 9000 m

METAR: FNLU 171800Z 20009KT 9000 NSC 23/20 Q1012 NOSIG

czas: 19:36 (18:36 UTC)

Prognoza

Raport powstał 2 godziny i 6 minut temu, godzina 16:30 UTC
Prognoza ważna od 17 godzina 18 UTC do 18 godzina 24 UTC
Wiatr 8 kt od zachodnio-południowy zachód
Widzialność: 8000 m
Stopniowe zmiany
od 17 godzina 20 UTC do 17 godzina 23 UTC
Wiatr 5 kt od południe
Widzialność: 7000 m
Rozproszone chmury na wysokości 2000 ft
Przejściowo
od 18 godzina 04 UTC do 18 godzina 08 UTC
Wiatr 3 kt z kierunków zmiennych
Widzialność: 2000 m
Przerywane chmury na wysokości 1800 ft
zamglenie

TAF: FNLU 171630Z 1718/1824 25008KT 8000 NSC BECMG 1720/1723 18005KT 7000 SCT020 TEMPO 1804/1808 VRB03KT 2000 BR BKN018

Obserwacja i prognoza pogody dla ponad 4000 lotnisk (raport METAR i TAF).

Dostępne stacje oznaczono żółtymi i czerwonymi punktami na mapie.

Najedź kursorem aby zobaczyć nazwę stacji.

Kliknij aby zobaczyć obserwacje i prognozy pogody.

Aby zmienić mapę: kliknij na zielony przycisk z czarnym krzyżykiem, aby powiększyć; na zielony przycisk z myślnikiem, aby pomniejszyć; na zielone strzałki, aby przejść do map sąsiednich.


METAR-TAF: